ENVA/TRD METAR and TAF weather

Enter ICAO airport designator
Station Type Date Time Source
ENVA METAR 2022/01/26 20:20 UTC NOAA

ENVA 262020Z 24009KT 9999 FEW015 BKN024 03/01 Q0997 TEMPO BKN014 RMK WIND 670FT 23010KT


Station Type Date Time Source
ENVA Decoded METAR 2022/01/26 20:20 UTC NOAA

Trondheim / Vaernes, Norway (ENVA) 63-28N 010-56E 17M
Jan 26, 2022 - 03:20 PM EST / 2022.01.26 2020 UTC
Wind: from the WSW (240 degrees) at 10 MPH (9 KT):0
Visibility: greater than 7 mile(s):0
Sky conditions: mostly cloudy
Temperature: 37 F (3 C)
Dew Point: 33 F (1 C)
Relative Humidity: 86%
Pressure (altimeter): 29.44 in. Hg (0997 hPa)
ob: ENVA 262020Z 24009KT 9999 FEW015 BKN024 03/01 Q0997 TEMPO BKN014 RMK WIND 670FT 23010KT
cycle: 20

Station Type Date Time Source
ENVA TAF 2022/01/26 18:57 UTC NOAA

TAF ENVA 261700Z 2618/2718 22012KT 9999 -SHRA FEW015TCU BKN030
TEMPO 2618/2622 4000 SHRA BKN012 SCT018CB
BECMG 2621/2623 VRB05KT
TEMPO 2708/2713 2000 SNRA VV009
BECMG 2711/2713 26010KT
TEMPO 2713/2718 1500 SHSNRA VV008
BECMG 2715/2718 32018KT

Example: see airport list